sensor_id;sensor_type;location;lat;lon;timestamp;pressure;altitude;pressure_sealevel;temperature;humidity
12969;BME280;6549;53.128;8.182;2023-03-20T00:00:36;101495.13;;;8.98;100.00
12969;BME280;6549;53.128;8.182;2023-03-20T00:03:37;101505.66;;;8.96;100.00
12969;BME280;6549;53.128;8.182;2023-03-20T00:06:37;101504.13;;;8.98;100.00
12969;BME280;6549;53.128;8.182;2023-03-20T00:09:38;101500.88;;;8.93;100.00
12969;BME280;6549;53.128;8.182;2023-03-20T00:12:38;101506.38;;;8.93;100.00
12969;BME280;6549;53.128;8.182;2023-03-20T00:15:41;101515.22;;;8.86;100.00
12969;BME280;6549;53.128;8.182;2023-03-20T00:18:42;101519.00;;;8.82;100.00
12969;BME280;6549;53.128;8.182;2023-03-20T00:21:44;101512.66;;;8.78;100.00
12969;BME280;6549;53.128;8.182;2023-03-20T00:24:46;101514.50;;;8.74;100.00
12969;BME280;6549;53.128;8.182;2023-03-20T00:27:48;101508.50;;;8.68;100.00
12969;BME280;6549;53.128;8.182;2023-03-20T00:30:48;101522.31;;;8.72;100.00
12969;BME280;6549;53.128;8.182;2023-03-20T00:33:49;101519.81;;;8.67;100.00
12969;BME280;6549;53.128;8.182;2023-03-20T00:36:50;101515.50;;;8.66;100.00
12969;BME280;6549;53.128;8.182;2023-03-20T00:39:51;101500.53;;;8.63;100.00
12969;BME280;6549;53.128;8.182;2023-03-20T00:42:57;101493.38;;;8.58;100.00
12969;BME280;6549;53.128;8.182;2023-03-20T00:45:58;101505.06;;;8.55;100.00
12969;BME280;6549;53.128;8.182;2023-03-20T00:48:58;101515.03;;;8.48;100.00
12969;BME280;6549;53.128;8.182;2023-03-20T00:51:59;101513.38;;;8.43;100.00
12969;BME280;6549;53.128;8.182;2023-03-20T00:55:01;101515.94;;;8.36;100.00
12969;BME280;6549;53.128;8.182;2023-03-20T00:58:01;101513.88;;;8.33;100.00
12969;BME280;6549;53.128;8.182;2023-03-20T01:01:02;101520.38;;;8.29;100.00
12969;BME280;6549;53.128;8.182;2023-03-20T01:04:08;101528.97;;;8.27;100.00
12969;BME280;6549;53.128;8.182;2023-03-20T01:07:13;101535.13;;;8.24;100.00
12969;BME280;6549;53.128;8.182;2023-03-20T01:10:13;101545.63;;;8.22;100.00
12969;BME280;6549;53.128;8.182;2023-03-20T01:13:28;101547.56;;;8.22;100.00
12969;BME280;6549;53.128;8.182;2023-03-20T01:16:29;101549.50;;;8.21;100.00
12969;BME280;6549;53.128;8.182;2023-03-20T01:19:29;101548.63;;;8.17;100.00
12969;BME280;6549;53.128;8.182;2023-03-20T01:22:29;101547.72;;;8.13;100.00
12969;BME280;6549;53.128;8.182;2023-03-20T01:25:30;101550.00;;;8.11;100.00
12969;BME280;6549;53.128;8.182;2023-03-20T01:28:30;101540.19;;;8.10;100.00
12969;BME280;6549;53.128;8.182;2023-03-20T01:31:31;101544.44;;;8.07;100.00
12969;BME280;6549;53.128;8.182;2023-03-20T01:34:31;101538.97;;;8.07;100.00
12969;BME280;6549;53.128;8.182;2023-03-20T01:37:31;101533.84;;;8.06;100.00
12969;BME280;6549;53.128;8.182;2023-03-20T01:43:39;101533.41;;;8.04;100.00
12969;BME280;6549;53.128;8.182;2023-03-20T01:46:39;101540.81;;;8.03;100.00
12969;BME280;6549;53.128;8.182;2023-03-20T01:50:19;101540.00;;;8.03;100.00
12969;BME280;6549;53.128;8.182;2023-03-20T01:53:24;101538.41;;;8.02;100.00
12969;BME280;6549;53.128;8.182;2023-03-20T01:56:27;101540.00;;;8.03;100.00
12969;BME280;6549;53.128;8.182;2023-03-20T01:59:35;101537.53;;;7.98;100.00
12969;BME280;6549;53.128;8.182;2023-03-20T02:02:38;101537.97;;;8.00;100.00
12969;BME280;6549;53.128;8.182;2023-03-20T02:05:39;101537.53;;;7.98;100.00
12969;BME280;6549;53.128;8.182;2023-03-20T02:08:44;101535.25;;;8.00;100.00
12969;BME280;6549;53.128;8.182;2023-03-20T02:11:46;101533.66;;;7.99;100.00
12969;BME280;6549;53.128;8.182;2023-03-20T02:14:49;101530.03;;;7.95;100.00
12969;BME280;6549;53.128;8.182;2023-03-20T02:17:49;101536.63;;;7.94;100.00
12969;BME280;6549;53.128;8.182;2023-03-20T02:28:35;101529.13;;;7.91;100.00
12969;BME280;6549;53.128;8.182;2023-03-20T02:39:05;101507.72;;;7.81;100.00
12969;BME280;6549;53.128;8.182;2023-03-20T02:45:28;101498.72;;;7.80;100.00
12969;BME280;6549;53.128;8.182;2023-03-20T02:53:05;101483.81;;;7.78;100.00
12969;BME280;6549;53.128;8.182;2023-03-20T02:58:59;101482.22;;;7.77;100.00
12969;BME280;6549;53.128;8.182;2023-03-20T03:02:07;101490.41;;;7.77;100.00
12969;BME280;6549;53.128;8.182;2023-03-20T03:05:15;101491.56;;;7.76;100.00
12969;BME280;6549;53.128;8.182;2023-03-20T03:08:19;101485.75;;;7.77;100.00
12969;BME280;6549;53.128;8.182;2023-03-20T03:11:21;101488.81;;;7.76;100.00
12969;BME280;6549;53.128;8.182;2023-03-20T03:14:45;101477.06;;;7.75;100.00
12969;BME280;6549;53.128;8.182;2023-03-20T03:17:47;101477.53;;;7.77;100.00
12969;BME280;6549;53.128;8.182;2023-03-20T03:20:53;101474.00;;;7.77;100.00
12969;BME280;6549;53.128;8.182;2023-03-20T03:23:54;101468.88;;;7.75;100.00
12969;BME280;6549;53.128;8.182;2023-03-20T03:26:57;101458.28;;;7.74;100.00
12969;BME280;6549;53.128;8.182;2023-03-20T03:30:02;101458.28;;;7.74;100.00
12969;BME280;6549;53.128;8.182;2023-03-20T03:39:48;101458.53;;;7.68;100.00
12969;BME280;6549;53.128;8.182;2023-03-20T03:43:00;101467.19;;;7.71;100.00
12969;BME280;6549;53.128;8.182;2023-03-20T03:46:19;101458.88;;;7.67;100.00
12969;BME280;6549;53.128;8.182;2023-03-20T03:49:26;101464.34;;;7.67;100.00
12969;BME280;6549;53.128;8.182;2023-03-20T03:52:30;101455.00;;;7.68;100.00
12969;BME280;6549;53.128;8.182;2023-03-20T03:55:36;101450.66;;;7.67;100.00
12969;BME280;6549;53.128;8.182;2023-03-20T03:58:43;101454.19;;;7.67;100.00
12969;BME280;6549;53.128;8.182;2023-03-20T04:01:46;101455.72;;;7.65;100.00
12969;BME280;6549;53.128;8.182;2023-03-20T04:04:50;101457.66;;;7.64;100.00
12969;BME280;6549;53.128;8.182;2023-03-20T04:07:54;101452.50;;;7.63;100.00
12969;BME280;6549;53.128;8.182;2023-03-20T04:10:54;101448.53;;;7.60;100.00
12969;BME280;6549;53.128;8.182;2023-03-20T04:13:55;101440.78;;;7.62;100.00
12969;BME280;6549;53.128;8.182;2023-03-20T04:16:55;101445.44;;;7.62;100.00
12969;BME280;6549;53.128;8.182;2023-03-20T04:19:56;101436.44;;;7.61;100.00
12969;BME280;6549;53.128;8.182;2023-03-20T04:22:56;101440.34;;;7.60;100.00
12969;BME280;6549;53.128;8.182;2023-03-20T04:25:57;101435.22;;;7.59;100.00
12969;BME280;6549;53.128;8.182;2023-03-20T04:28:57;101427.81;;;7.59;100.00
12969;BME280;6549;53.128;8.182;2023-03-20T04:31:58;101445.00;;;7.60;100.00
12969;BME280;6549;53.128;8.182;2023-03-20T04:34:59;101433.81;;;7.65;100.00
12969;BME280;6549;53.128;8.182;2023-03-20T04:37:59;101432.22;;;7.64;100.00
12969;BME280;6549;53.128;8.182;2023-03-20T04:40:59;101428.22;;;7.61;100.00
12969;BME280;6549;53.128;8.182;2023-03-20T04:44:00;101436.44;;;7.61;100.00
12969;BME280;6549;53.128;8.182;2023-03-20T04:47:00;101438.03;;;7.62;100.00
12969;BME280;6549;53.128;8.182;2023-03-20T04:50:00;101440.34;;;7.60;100.00
12969;BME280;6549;53.128;8.182;2023-03-20T04:53:01;101440.34;;;7.60;100.00
12969;BME280;6549;53.128;8.182;2023-03-20T04:56:01;101447.38;;;7.61;100.00
12969;BME280;6549;53.128;8.182;2023-03-20T04:59:01;101441.47;;;7.59;100.00
12969;BME280;6549;53.128;8.182;2023-03-20T05:02:02;101443.97;;;7.64;100.00
12969;BME280;6549;53.128;8.182;2023-03-20T05:05:03;101446.94;;;7.59;100.00
12969;BME280;6549;53.128;8.182;2023-03-20T05:08:04;101448.97;;;7.62;100.00
12969;BME280;6549;53.128;8.182;2023-03-20T05:11:05;101446.16;;;7.59;100.00
12969;BME280;6549;53.128;8.182;2023-03-20T05:14:06;101441.47;;;7.59;100.00
12969;BME280;6549;53.128;8.182;2023-03-20T05:17:07;101439.09;;;7.58;100.00
12969;BME280;6549;53.128;8.182;2023-03-20T05:20:07;101440.59;;;7.55;100.00
12969;BME280;6549;53.128;8.182;2023-03-20T05:23:08;101440.59;;;7.55;100.00
12969;BME280;6549;53.128;8.182;2023-03-20T05:26:08;101449.84;;;7.51;100.00
12969;BME280;6549;53.128;8.182;2023-03-20T05:29:09;101443.22;;;7.52;100.00
12969;BME280;6549;53.128;8.182;2023-03-20T05:32:09;101448.34;;;7.53;100.00
12969;BME280;6549;53.128;8.182;2023-03-20T05:35:11;101446.41;;;7.54;100.00
12969;BME280;6549;53.128;8.182;2023-03-20T05:38:12;101448.34;;;7.53;100.00
12969;BME280;6549;53.128;8.182;2023-03-20T05:41:12;101450.38;;;7.56;100.00
12969;BME280;6549;53.128;8.182;2023-03-20T05:44:12;101457.00;;;7.55;100.00
12969;BME280;6549;53.128;8.182;2023-03-20T05:47:13;101447.66;;;7.56;100.00
12969;BME280;6549;53.128;8.182;2023-03-20T05:50:13;101455.41;;;7.54;100.00
12969;BME280;6549;53.128;8.182;2023-03-20T05:53:13;101457.00;;;7.55;100.00
12969;BME280;6549;53.128;8.182;2023-03-20T05:56:14;101457.44;;;7.57;100.00
12969;BME280;6549;53.128;8.182;2023-03-20T05:59:14;101470.66;;;7.55;100.00
12969;BME280;6549;53.128;8.182;2023-03-20T06:02:14;101472.28;;;7.56;100.00
12969;BME280;6549;53.128;8.182;2023-03-20T06:05:15;101468.28;;;7.54;100.00
12969;BME280;6549;53.128;8.182;2023-03-20T06:08:15;101469.97;;;7.58;100.00
12969;BME280;6549;53.128;8.182;2023-03-20T06:11:16;101467.22;;;7.58;100.00
12969;BME280;6549;53.128;8.182;2023-03-20T06:14:16;101467.22;;;7.58;100.00
12969;BME280;6549;53.128;8.182;2023-03-20T06:17:16;101466.44;;;7.58;100.00
12969;BME280;6549;53.128;8.182;2023-03-20T06:20:17;101475.44;;;7.58;100.00
12969;BME280;6549;53.128;8.182;2023-03-20T06:23:18;101467.69;;;7.60;100.00
12969;BME280;6549;53.128;8.182;2023-03-20T06:26:18;101474.41;;;7.63;100.00
12969;BME280;6549;53.128;8.182;2023-03-20T06:29:18;101479.53;;;7.64;100.00
12969;BME280;6549;53.128;8.182;2023-03-20T06:32:19;101482.25;;;7.64;100.00
12969;BME280;6549;53.128;8.182;2023-03-20T06:35:19;101491.28;;;7.65;100.00
12969;BME280;6549;53.128;8.182;2023-03-20T06:38:20;101487.72;;;7.64;100.00
12969;BME280;6549;53.128;8.182;2023-03-20T06:41:20;101494.09;;;7.68;100.00
12969;BME280;6549;53.128;8.182;2023-03-20T06:44:21;101484.75;;;7.70;100.00
12969;BME280;6549;53.128;8.182;2023-03-20T06:47:22;101490.22;;;7.70;100.00
12969;BME280;6549;53.128;8.182;2023-03-20T06:50:22;101477.44;;;7.74;100.00
12969;BME280;6549;53.128;8.182;2023-03-20T06:53:23;101474.34;;;7.75;100.00
12969;BME280;6549;53.128;8.182;2023-03-20T06:56:23;101481.06;;;7.78;100.00
12969;BME280;6549;53.128;8.182;2023-03-20T06:59:24;101474.78;;;7.77;100.00
12969;BME280;6549;53.128;8.182;2023-03-20T07:02:25;101479.56;;;7.80;100.00
12969;BME280;6549;53.128;8.182;2023-03-20T07:05:25;101474.19;;;7.84;100.00
12969;BME280;6549;53.128;8.182;2023-03-20T07:08:26;101481.72;;;7.87;100.00
12969;BME280;6549;53.128;8.182;2023-03-20T07:11:26;101489.69;;;7.92;100.00
12969;BME280;6549;53.128;8.182;2023-03-20T07:14:27;101487.38;;;7.94;100.00
12969;BME280;6549;53.128;8.182;2023-03-20T07:17:27;101490.09;;;7.94;100.00
12969;BME280;6549;53.128;8.182;2023-03-20T07:20:28;101498.78;;;7.96;100.00
12969;BME280;6549;53.128;8.182;2023-03-20T07:23:29;101499.28;;;8.01;100.00
12969;BME280;6549;53.128;8.182;2023-03-20T07:26:29;101505.22;;;8.03;100.00
12969;BME280;6549;53.128;8.182;2023-03-20T07:29:30;101508.41;;;8.05;100.00
12969;BME280;6549;53.128;8.182;2023-03-20T07:32:30;101501.44;;;8.08;100.00
12969;BME280;6549;53.128;8.182;2023-03-20T07:35:31;101503.03;;;8.09;100.00
12969;BME280;6549;53.128;8.182;2023-03-20T07:38:31;101503.13;;;8.12;100.00
12969;BME280;6549;53.128;8.182;2023-03-20T07:41:31;101504.72;;;8.13;100.00
12969;BME280;6549;53.128;8.182;2023-03-20T07:44:32;101515.78;;;8.17;100.00
12969;BME280;6549;53.128;8.182;2023-03-20T07:47:32;101510.13;;;8.26;100.00
12969;BME280;6549;53.128;8.182;2023-03-20T07:50:32;101518.00;;;8.27;100.00
12969;BME280;6549;53.128;8.182;2023-03-20T07:53:33;101518.56;;;8.33;100.00
12969;BME280;6549;53.128;8.182;2023-03-20T07:56:33;101515.66;;;8.41;100.00
12969;BME280;6549;53.128;8.182;2023-03-20T07:59:33;101512.22;;;8.44;100.00
12969;BME280;6549;53.128;8.182;2023-03-20T08:02:34;101515.94;;;8.52;100.00
12969;BME280;6549;53.128;8.182;2023-03-20T08:05:34;101516.72;;;8.52;100.00
12969;BME280;6549;53.128;8.182;2023-03-20T08:08:35;101520.88;;;8.62;100.00
12969;BME280;6549;53.128;8.182;2023-03-20T08:11:35;101523.09;;;8.56;100.00
12969;BME280;6549;53.128;8.182;2023-03-20T08:14:35;101520.78;;;8.58;100.00
12969;BME280;6549;53.128;8.182;2023-03-20T08:17:41;101528.72;;;8.64;100.00
12969;BME280;6549;53.128;8.182;2023-03-20T08:20:41;101520.25;;;8.69;100.00
12969;BME280;6549;53.128;8.182;2023-03-20T08:23:42;101525.81;;;8.72;100.00
12969;BME280;6549;53.128;8.182;2023-03-20T08:26:42;101533.69;;;8.74;100.00
12969;BME280;6549;53.128;8.182;2023-03-20T08:29:43;101529.09;;;8.78;100.00
12969;BME280;6549;53.128;8.182;2023-03-20T08:32:43;101529.19;;;8.81;100.00
12969;BME280;6549;53.128;8.182;2023-03-20T08:35:54;101535.19;;;8.87;100.00
12969;BME280;6549;53.128;8.182;2023-03-20T08:38:54;101525.09;;;8.91;100.00
12969;BME280;6549;53.128;8.182;2023-03-20T08:41:55;101515.47;;;8.97;100.00
12969;BME280;6549;53.128;8.182;2023-03-20T08:44:55;101514.94;;;9.07;100.00
12969;BME280;6549;53.128;8.182;2023-03-20T08:47:55;101523.59;;;9.09;100.00
12969;BME280;6549;53.128;8.182;2023-03-20T08:50:56;101516.75;;;9.19;100.00
12969;BME280;6549;53.128;8.182;2023-03-20T08:53:56;101513.38;;;9.25;100.00
12969;BME280;6549;53.128;8.182;2023-03-20T08:56:56;101504.44;;;9.28;100.00
12969;BME280;6549;53.128;8.182;2023-03-20T08:59:57;101511.94;;;9.31;100.00
12969;BME280;6549;53.128;8.182;2023-03-20T09:02:57;101514.63;;;9.28;100.00
12969;BME280;6549;53.128;8.182;2023-03-20T09:05:57;101513.09;;;9.30;100.00
12969;BME280;6549;53.128;8.182;2023-03-20T09:08:58;101515.75;;;9.27;100.00
12969;BME280;6549;53.128;8.182;2023-03-20T09:11:59;101522.03;;;9.27;100.00
12969;BME280;6549;53.128;8.182;2023-03-20T09:14:59;101522.78;;;9.24;100.00
12969;BME280;6549;53.128;8.182;2023-03-20T09:18:00;101521.25;;;9.27;100.00
12969;BME280;6549;53.128;8.182;2023-03-20T09:21:01;101518.44;;;9.23;100.00
12969;BME280;6549;53.128;8.182;2023-03-20T09:24:01;101518.50;;;9.27;100.00
12969;BME280;6549;53.128;8.182;2023-03-20T09:27:02;101515.47;;;9.32;100.00
12969;BME280;6549;53.128;8.182;2023-03-20T09:30:03;101520.31;;;9.38;100.00
12969;BME280;6549;53.128;8.182;2023-03-20T09:33:04;101525.69;;;9.51;100.00
12969;BME280;6549;53.128;8.182;2023-03-20T09:36:05;101517.19;;;9.56;100.00
12969;BME280;6549;53.128;8.182;2023-03-20T09:39:06;101522.28;;;9.57;100.00
12969;BME280;6549;53.128;8.182;2023-03-20T09:46:02;101519.13;;;9.55;100.00
12969;BME280;6549;53.128;8.182;2023-03-20T09:56:25;101520.00;;;9.78;100.00
12969;BME280;6549;53.128;8.182;2023-03-20T09:59:26;101507.28;;;9.89;100.00
12969;BME280;6549;53.128;8.182;2023-03-20T10:02:49;101510.22;;;10.00;100.00
12969;BME280;6549;53.128;8.182;2023-03-20T10:06:00;101513.75;;;10.01;100.00
12969;BME280;6549;53.128;8.182;2023-03-20T10:09:20;101507.34;;;10.12;100.00
12969;BME280;6549;53.128;8.182;2023-03-20T10:12:54;101505.75;;;10.30;100.00
12969;BME280;6549;53.128;8.182;2023-03-20T10:16:07;101504.53;;;10.51;100.00
12969;BME280;6549;53.128;8.182;2023-03-20T10:22:22;101509.50;;;10.68;100.00
12969;BME280;6549;53.128;8.182;2023-03-20T10:25:31;101509.41;;;10.61;100.00
12969;BME280;6549;53.128;8.182;2023-03-20T10:31:49;101498.81;;;10.63;100.00
12969;BME280;6549;53.128;8.182;2023-03-20T10:35:17;101504.25;;;10.82;100.00
12969;BME280;6549;53.128;8.182;2023-03-20T10:41:46;101491.69;;;11.67;100.00
12969;BME280;6549;53.128;8.182;2023-03-20T10:44:57;101494.03;;;12.35;100.00
12969;BME280;6549;53.128;8.182;2023-03-20T10:48:01;101496.03;;;12.86;100.00
12969;BME280;6549;53.128;8.182;2023-03-20T10:51:05;101493.03;;;13.05;100.00
12969;BME280;6549;53.128;8.182;2023-03-20T10:54:27;101492.94;;;12.94;100.00
12969;BME280;6549;53.128;8.182;2023-03-20T10:57:33;101486.94;;;12.82;100.00
12969;BME280;6549;53.128;8.182;2023-03-20T11:00:36;101483.97;;;12.57;100.00
12969;BME280;6549;53.128;8.182;2023-03-20T11:03:37;101475.50;;;12.32;100.00
12969;BME280;6549;53.128;8.182;2023-03-20T11:06:59;101478.94;;;12.22;100.00
12969;BME280;6549;53.128;8.182;2023-03-20T11:13:25;101474.63;;;12.21;100.00
12969;BME280;6549;53.128;8.182;2023-03-20T11:16:34;101480.50;;;12.20;100.00
12969;BME280;6549;53.128;8.182;2023-03-20T11:19:39;101471.00;;;12.17;100.00
12969;BME280;6549;53.128;8.182;2023-03-20T11:22:40;101469.06;;;12.18;100.00
12969;BME280;6549;53.128;8.182;2023-03-20T11:25:55;101467.09;;;12.18;100.00
12969;BME280;6549;53.128;8.182;2023-03-20T11:28:58;101468.97;;;12.07;100.00
12969;BME280;6549;53.128;8.182;2023-03-20T11:32:30;101464.09;;;11.93;100.00
12969;BME280;6549;53.128;8.182;2023-03-20T11:35:31;101468.03;;;11.96;100.00
12969;BME280;6549;53.128;8.182;2023-03-20T11:38:32;101463.34;;;11.96;100.00
12969;BME280;6549;53.128;8.182;2023-03-20T11:41:33;101460.47;;;11.86;100.00
12969;BME280;6549;53.128;8.182;2023-03-20T11:44:34;101457.59;;;11.75;100.00
12969;BME280;6549;53.128;8.182;2023-03-20T11:47:35;101467.66;;;11.64;100.00
12969;BME280;6549;53.128;8.182;2023-03-20T11:50:41;101456.56;;;11.57;100.00
12969;BME280;6549;53.128;8.182;2023-03-20T11:56:54;101457.75;;;11.26;100.00
12969;BME280;6549;53.128;8.182;2023-03-20T11:59:55;101464.88;;;11.31;100.00
12969;BME280;6549;53.128;8.182;2023-03-20T12:02:56;101464.97;;;11.38;100.00
12969;BME280;6549;53.128;8.182;2023-03-20T12:05:59;101456.81;;;11.45;100.00
12969;BME280;6549;53.128;8.182;2023-03-20T12:09:04;101461.09;;;11.42;100.00
12969;BME280;6549;53.128;8.182;2023-03-20T12:12:15;101451.72;;;11.47;100.00
12969;BME280;6549;53.128;8.182;2023-03-20T12:15:26;101459.53;;;11.41;100.00
12969;BME280;6549;53.128;8.182;2023-03-20T12:18:35;101451.59;;;11.36;100.00
12969;BME280;6549;53.128;8.182;2023-03-20T12:21:47;101464.09;;;11.30;100.00
12969;BME280;6549;53.128;8.182;2023-03-20T12:25:01;101453.13;;;11.34;100.00
12969;BME280;6549;53.128;8.182;2023-03-20T12:31:31;101451.38;;;11.52;100.00
12969;BME280;6549;53.128;8.182;2023-03-20T12:34:47;101446.38;;;11.61;100.00
12969;BME280;6549;53.128;8.182;2023-03-20T12:37:49;101451.50;;;11.59;100.00
12969;BME280;6549;53.128;8.182;2023-03-20T12:40:54;101451.81;;;11.54;100.00
12969;BME280;6549;53.128;8.182;2023-03-20T12:47:25;101448.91;;;11.73;100.00
12969;BME280;6549;53.128;8.182;2023-03-20T12:50:41;101443.72;;;11.68;100.00
12969;BME280;6549;53.128;8.182;2023-03-20T12:53:54;101452.22;;;11.56;100.00
12969;BME280;6549;53.128;8.182;2023-03-20T12:57:08;101446.34;;;11.57;100.00
12969;BME280;6549;53.128;8.182;2023-03-20T13:06:36;101439.38;;;11.34;100.00
12969;BME280;6549;53.128;8.182;2023-03-20T13:20:21;101429.16;;;11.04;100.00
12969;BME280;6549;53.128;8.182;2023-03-20T13:23:41;101429.97;;;11.05;100.00
12969;BME280;6549;53.128;8.182;2023-03-20T13:26:46;101422.50;;;11.05;100.00
12969;BME280;6549;53.128;8.182;2023-03-20T13:30:04;101424.78;;;11.00;100.00
12969;BME280;6549;53.128;8.182;2023-03-20T13:33:25;101431.81;;;10.97;100.00
12969;BME280;6549;53.128;8.182;2023-03-20T13:40:29;101425.81;;;10.88;100.00
12969;BME280;6549;53.128;8.182;2023-03-20T13:43:35;101433.22;;;10.84;100.00
12969;BME280;6549;53.128;8.182;2023-03-20T13:46:43;101431.09;;;10.74;100.00
12969;BME280;6549;53.128;8.182;2023-03-20T13:50:48;101431.69;;;10.64;100.00
12969;BME280;6549;53.128;8.182;2023-03-20T13:53:56;101434.66;;;10.52;100.00
12969;BME280;6549;53.128;8.182;2023-03-20T14:00:45;101448.91;;;10.34;100.00
12969;BME280;6549;53.128;8.182;2023-03-20T14:03:50;101444.47;;;10.26;100.00
12969;BME280;6549;53.128;8.182;2023-03-20T14:06:55;101446.06;;;10.08;100.00
12969;BME280;6549;53.128;8.182;2023-03-20T14:09:56;101447.81;;;9.97;100.00
12969;BME280;6549;53.128;8.182;2023-03-20T14:13:00;101451.88;;;9.84;100.00
12969;BME280;6549;53.128;8.182;2023-03-20T14:16:03;101445.19;;;9.81;100.00
12969;BME280;6549;53.128;8.182;2023-03-20T14:19:17;101447.13;;;9.81;100.00
12969;BME280;6549;53.128;8.182;2023-03-20T14:22:26;101440.84;;;9.80;100.00
12969;BME280;6549;53.128;8.182;2023-03-20T14:25:33;101436.75;;;9.93;100.00
12969;BME280;6549;53.128;8.182;2023-03-20T14:28:52;101438.41;;;9.98;100.00
12969;BME280;6549;53.128;8.182;2023-03-20T14:32:02;101430.28;;;10.05;100.00
12969;BME280;6549;53.128;8.182;2023-03-20T14:35:28;101421.34;;;10.08;100.00
12969;BME280;6549;53.128;8.182;2023-03-20T14:38:38;101417.31;;;10.02;100.00
12969;BME280;6549;53.128;8.182;2023-03-20T14:42:06;101417.19;;;9.95;100.00
12969;BME280;6549;53.128;8.182;2023-03-20T14:48:40;101407.22;;;9.87;100.00
12969;BME280;6549;53.128;8.182;2023-03-20T14:51:44;101412.19;;;9.78;100.00
12969;BME280;6549;53.128;8.182;2023-03-20T14:54:54;101397.44;;;9.67;100.00
12969;BME280;6549;53.128;8.182;2023-03-20T14:58:26;101390.00;;;9.67;100.00
12969;BME280;6549;53.128;8.182;2023-03-20T15:04:52;101401.78;;;9.68;100.00
12969;BME280;6549;53.128;8.182;2023-03-20T15:07:55;101400.19;;;9.67;100.00
12969;BME280;6549;53.128;8.182;2023-03-20T15:10:58;101395.78;;;9.62;100.00
12969;BME280;6549;53.128;8.182;2023-03-20T15:14:06;101395.00;;;9.62;100.00
12969;BME280;6549;53.128;8.182;2023-03-20T15:17:23;101406.47;;;9.67;100.00
12969;BME280;6549;53.128;8.182;2023-03-20T15:20:25;101402.50;;;9.65;100.00
12969;BME280;6549;53.128;8.182;2023-03-20T15:23:28;101408.66;;;9.58;100.00
12969;BME280;6549;53.128;8.182;2023-03-20T15:26:31;101411.69;;;9.53;100.00
12969;BME280;6549;53.128;8.182;2023-03-20T15:29:33;101407.63;;;9.47;100.00
12969;BME280;6549;53.128;8.182;2023-03-20T15:32:34;101406.00;;;9.42;100.00
12969;BME280;6549;53.128;8.182;2023-03-20T15:35:34;101393.06;;;9.43;100.00
12969;BME280;6549;53.128;8.182;2023-03-20T15:38:35;101392.69;;;9.44;100.00
12969;BME280;6549;53.128;8.182;2023-03-20T15:41:37;101388.06;;;9.48;100.00
12969;BME280;6549;53.128;8.182;2023-03-20T15:44:39;101386.19;;;9.53;100.00
12969;BME280;6549;53.128;8.182;2023-03-20T15:47:41;101385.50;;;9.56;100.00
12969;BME280;6549;53.128;8.182;2023-03-20T15:50:43;101395.22;;;9.53;100.00
12969;BME280;6549;53.128;8.182;2023-03-20T15:53:46;101389.16;;;9.44;100.00
12969;BME280;6549;53.128;8.182;2023-03-20T15:56:50;101384.06;;;9.42;100.00
12969;BME280;6549;53.128;8.182;2023-03-20T15:59:51;101397.38;;;9.44;100.00
12969;BME280;6549;53.128;8.182;2023-03-20T16:02:52;101389.38;;;9.35;100.00
12969;BME280;6549;53.128;8.182;2023-03-20T16:05:53;101392.47;;;9.34;100.00
12969;BME280;6549;53.128;8.182;2023-03-20T16:09:04;101392.41;;;9.30;100.00
12969;BME280;6549;53.128;8.182;2023-03-20T16:12:14;101399.50;;;9.31;100.00
12969;BME280;6549;53.128;8.182;2023-03-20T16:15:16;101397.47;;;9.28;100.00
12969;BME280;6549;53.128;8.182;2023-03-20T16:18:17;101397.09;;;9.30;100.00
12969;BME280;6549;53.128;8.182;2023-03-20T16:21:21;101399.72;;;9.23;100.00
12969;BME280;6549;53.128;8.182;2023-03-20T16:24:26;101401.88;;;9.14;100.00
12969;BME280;6549;53.128;8.182;2023-03-20T16:27:29;101407.63;;;9.09;100.00
12969;BME280;6549;53.128;8.182;2023-03-20T16:30:32;101405.28;;;9.07;100.00
12969;BME280;6549;53.128;8.182;2023-03-20T16:33:34;101406.53;;;8.94;100.00
12969;BME280;6549;53.128;8.182;2023-03-20T16:36:37;101410.25;;;8.86;100.00
12969;BME280;6549;53.128;8.182;2023-03-20T16:39:37;101404.63;;;8.79;100.00
12969;BME280;6549;53.128;8.182;2023-03-20T16:42:37;101400.06;;;8.67;100.00
12969;BME280;6549;53.128;8.182;2023-03-20T16:45:40;101402.97;;;8.58;100.00
12969;BME280;6549;53.128;8.182;2023-03-20T16:48:41;101400.88;;;8.52;100.00
12969;BME280;6549;53.128;8.182;2023-03-20T16:51:42;101400.81;;;8.48;100.00
12969;BME280;6549;53.128;8.182;2023-03-20T16:54:43;101399.13;;;8.44;100.00
12969;BME280;6549;53.128;8.182;2023-03-20T16:57:46;101402.13;;;8.39;100.00
12969;BME280;6549;53.128;8.182;2023-03-20T17:00:50;101400.47;;;8.34;100.00
12969;BME280;6549;53.128;8.182;2023-03-20T17:03:54;101397.06;;;8.25;100.00
12969;BME280;6549;53.128;8.182;2023-03-20T17:06:58;101401.66;;;8.21;100.00
12969;BME280;6549;53.128;8.182;2023-03-20T17:10:16;101399.66;;;8.18;100.00
12969;BME280;6549;53.128;8.182;2023-03-20T17:13:17;101404.03;;;8.07;100.00
12969;BME280;6549;53.128;8.182;2023-03-20T17:16:20;101397.34;;;8.04;100.00
12969;BME280;6549;53.128;8.182;2023-03-20T17:19:20;101402.63;;;7.97;100.00
12969;BME280;6549;53.128;8.182;2023-03-20T17:22:23;101410.41;;;7.95;100.00
12969;BME280;6549;53.128;8.182;2023-03-20T17:25:24;101413.94;;;7.96;100.00
12969;BME280;6549;53.128;8.182;2023-03-20T17:28:31;101413.81;;;7.92;100.00
12969;BME280;6549;53.128;8.182;2023-03-20T17:31:32;101403.94;;;7.88;100.00
12969;BME280;6549;53.128;8.182;2023-03-20T17:34:32;101405.78;;;7.84;100.00
12969;BME280;6549;53.128;8.182;2023-03-20T17:37:32;101409.13;;;7.77;100.00
12969;BME280;6549;53.128;8.182;2023-03-20T17:40:33;101408.69;;;7.75;100.00
12969;BME280;6549;53.128;8.182;2023-03-20T17:43:33;101412.84;;;7.69;100.00
12969;BME280;6549;53.128;8.182;2023-03-20T17:46:33;101406.66;;;7.72;100.00
12969;BME280;6549;53.128;8.182;2023-03-20T17:49:34;101401.00;;;7.65;100.00
12969;BME280;6549;53.128;8.182;2023-03-20T17:52:34;101401.59;;;7.58;100.00